Aérodrome :
LOGIN :

S'inscrire | Disclaimer

   EN    FR    IT 

 










Légende :    VFR   VFR Marginal   IFR   IFR Intensif   IFR Très Intensif
Visi : 
Plafond : 
>= 8 km
>= 3000ft
5 à 8 km
1000 à 3000 ft
1500m à 5 km
500 à 1000 ft
800 à 1500m
200 à 500 ft
< 800m
< 200 ft
Symboles :   Orages  Brouillard  Fortes neiges  Fortes précipitations  Vent > 20 kt
SIGMETs :   Divers  Orages  Givrage  Turbulence  Onde Orograph.  Cendres Volcan.






- Altitude de l'aérodrome : 425 ft
- Code IATA : DTM


EDLW - Dortmund

DERNIER METAR :
  • 151750Z 20005KT CAVOK 04/02 Q1003

METARs EXPIRÉS :
  • 151720Z VRB02KT CAVOK 03/02 Q1002
  • 151650Z 17003KT CAVOK 05/03 Q1002
  • 151620Z 15003KT CAVOK 04/03 Q1002
  • 151550Z 15003KT 090V200 CAVOK 05/03 Q1001
  • 151520Z 07003KT 030V110 CAVOK 06/03 Q1000
  • 151450Z 07003KT 020V100 CAVOK 05/03 Q1000

TAF TAF EDLW
Valide du 15 à 18h jusqu'au 16 à 18h UTC


151700Z 1518/1618 VRB03KT CAVOK



MET'MAP, la Météo Aéronautique d'un coup d'oeil ! - Copyright ORBIFLY Décembre 2007 - Disclaimer

ORBIFLY MET'MAP TEAM :

Programmation & Développement : Alexandra Zaïnal
Conception & Développement : Baudouin d'Aumeries
Co-Programmation & Développement : Marc-Olivier Méhu
Soutien technique & logistique : Manuel Goepfert

Contact : metmap@orbifly.com




SOURCES & CREDITS :

   NOAA